Time;durP1;ratioP1;P1;durP2;ratioP2;P2;SDS_P1;SDS_P2;PMS_P1;PMS_P2;Temp;Humidity;BMP_temperature;BMP_pressure;BME280_temperature;BME280_humidity;BME280_pressure;Samples;Min_cycle;Max_cycle;Signal;HPM_P1;HPM_P2
2023/09/05 00:03:01;;;;;;;5.38;3.10;;;;;;;17.67;64.50;101051.81;10237025;28;20061;-74
2023/09/05 00:08:05;;;;;;;4.75;2.80;;;;;;;17.57;64.31;101051.88;10235993;28;20157;-74
2023/09/05 00:13:09;;;;;;;5.13;2.78;;;;;;;17.57;64.42;101053.75;10237471;28;20049;-74
2023/09/05 00:18:13;;;;;;;3.63;2.60;;;;;;;17.52;64.50;101048.75;10239594;28;20791;-74
2023/09/05 00:23:16;;;;;;;6.10;2.55;;;;;;;17.47;64.66;101048.41;10234843;28;20057;-74
2023/09/05 00:28:19;;;;;;;3.60;2.60;;;;;;;17.40;64.62;101048.13;10236673;28;20099;-74
2023/09/05 00:33:24;;;;;;;3.10;2.63;;;;;;;17.45;64.65;101040.38;10229036;28;20514;-75
2023/09/05 00:38:27;;;;;;;4.88;2.67;;;;;;;17.39;64.73;101038.28;10230145;28;20051;-74
2023/09/05 00:43:30;;;;;;;4.72;2.75;;;;;;;17.41;64.73;101038.13;10236529;28;20063;-74
2023/09/05 00:48:37;;;;;;;3.17;2.60;;;;;;;17.42;64.68;101043.41;10236270;28;20050;-74
2023/09/05 00:53:40;;;;;;;4.80;2.88;;;;;;;17.33;64.95;101046.19;10233488;28;20062;-74
2023/09/05 00:58:43;;;;;;;3.85;2.60;;;;;;;17.23;64.92;101038.09;10246938;28;20055;-75
2023/09/05 01:03:47;;;;;;;5.53;2.70;;;;;;;17.22;65.28;101028.22;10235061;28;20047;-75
2023/09/05 01:08:58;;;;;;;3.47;2.75;;;;;;;17.19;65.24;101015.81;10237382;28;20046;-74
2023/09/05 01:14:01;;;;;;;2.75;2.50;;;;;;;17.15;65.41;101024.44;10235720;28;20418;-74
2023/09/05 01:19:06;;;;;;;3.22;2.90;;;;;;;17.18;65.04;101024.97;10231486;28;20105;-74
2023/09/05 01:24:19;;;;;;;4.65;3.20;;;;;;;17.18;64.96;101024.97;10247356;28;20069;-74
2023/09/05 01:29:29;;;;;;;4.85;3.13;;;;;;;17.19;64.73;101031.25;10249547;28;20148;-74
2023/09/05 01:40:07;;;;;;;3.70;2.65;;;;;;;17.13;64.94;101024.56;10364265;23;20047;-75
2023/09/05 01:45:10;;;;;;;6.35;3.00;;;;;;;17.09;64.87;101038.59;10235675;28;20439;-75
2023/09/05 01:50:13;;;;;;;6.13;2.92;;;;;;;17.07;64.86;101021.59;10259104;28;20421;-75
2023/09/05 01:55:17;;;;;;;4.03;3.30;;;;;;;17.13;65.01;101026.41;10258770;28;20063;-75
2023/09/05 02:00:21;;;;;;;3.00;2.70;;;;;;;17.11;64.63;101017.56;10257953;28;20051;-75
2023/09/05 02:05:24;;;;;;;3.63;2.42;;;;;;;17.06;64.88;101011.72;10222761;28;20419;-76
2023/09/05 02:10:29;;;;;;;8.55;2.72;;;;;;;17.03;65.09;101013.75;10222191;28;20510;-75
2023/09/05 02:15:32;;;;;;;3.65;2.88;;;;;;;17.03;64.91;101010.16;10219500;28;20497;-75
2023/09/05 02:20:35;;;;;;;3.58;2.78;;;;;;;16.99;64.94;101011.50;10226415;28;20892;-75
2023/09/05 02:25:39;;;;;;;2.90;2.60;;;;;;;16.98;64.98;101016.06;10227572;28;20156;-75
2023/09/05 02:30:43;;;;;;;5.00;3.10;;;;;;;16.89;65.35;101018.81;10230066;28;20043;-75
2023/09/05 02:35:46;;;;;;;3.42;2.97;;;;;;;16.80;65.63;101012.44;10224175;28;20409;-76
2023/09/05 02:40:51;;;;;;;4.32;2.58;;;;;;;16.70;66.01;101014.31;10229460;28;20097;-75
2023/09/05 02:45:54;;;;;;;2.85;2.63;;;;;;;16.66;66.14;101024.63;10220126;28;20058;-75
2023/09/05 02:51:04;;;;;;;5.18;3.00;;;;;;;16.71;66.25;101021.47;10229427;28;20443;-75
2023/09/05 02:56:09;;;;;;;9.70;2.85;;;;;;;16.69;66.37;101015.34;10229159;28;20076;-75
2023/09/05 03:01:12;;;;;;;2.67;2.47;;;;;;;16.72;66.30;101013.19;10224927;28;20190;-75
2023/09/05 03:06:17;;;;;;;3.70;2.95;;;;;;;16.66;66.31;101021.91;10212953;28;20051;-75
2023/09/05 03:11:21;;;;;;;5.15;2.88;;;;;;;16.59;66.60;101023.50;10224532;28;20043;-76
2023/09/05 03:16:24;;;;;;;4.80;3.30;;;;;;;16.58;66.41;101019.09;10225605;28;20506;-75
2023/09/05 03:21:27;;;;;;;3.22;2.90;;;;;;;16.57;66.48;101020.97;10227614;28;20101;-76
2023/09/05 03:26:32;;;;;;;4.03;2.88;;;;;;;16.57;66.33;101020.09;10226316;28;20142;-75
2023/09/05 03:31:35;;;;;;;4.35;3.00;;;;;;;16.56;66.39;101018.38;10226281;28;20054;-75
2023/09/05 03:36:38;;;;;;;4.32;2.80;;;;;;;16.54;66.70;101021.25;10226265;28;20059;-75
2023/09/05 03:41:42;;;;;;;4.18;3.17;;;;;;;16.43;66.85;101020.56;10224980;28;20134;-75
2023/09/05 03:46:45;;;;;;;4.00;2.80;;;;;;;16.38;67.17;101012.88;10220027;28;20047;-75
2023/09/05 03:51:48;;;;;;;6.85;3.08;;;;;;;16.39;66.87;101009.16;10229850;28;20088;-75
2023/09/05 03:56:52;;;;;;;3.75;3.00;;;;;;;16.36;66.93;100999.47;10220679;28;20543;-75
2023/09/05 04:01:55;;;;;;;10.32;3.63;;;;;;;16.36;67.08;101001.31;10224570;28;20050;-75
2023/09/05 04:06:58;;;;;;;3.97;2.80;;;;;;;16.32;67.00;101010.78;10230935;28;20062;-75
2023/09/05 04:12:02;;;;;;;7.22;3.45;;;;;;;16.31;67.36;101018.03;10226750;28;20675;-75
2023/09/05 04:17:05;;;;;;;6.47;2.90;;;;;;;16.31;67.30;101028.88;10213984;28;20051;-75
2023/09/05 04:22:08;;;;;;;3.95;3.17;;;;;;;16.23;67.43;101023.28;10222560;28;20178;-75
2023/09/05 04:27:12;;;;;;;7.30;3.08;;;;;;;16.21;67.36;101022.59;10222701;28;20043;-74
2023/09/05 04:32:15;;;;;;;4.45;2.80;;;;;;;16.20;67.50;101020.88;10218863;28;20106;-74
2023/09/05 04:37:19;;;;;;;4.40;3.05;;;;;;;16.16;67.43;101019.47;10222106;28;20055;-74
2023/09/05 04:42:26;;;;;;;3.58;3.28;;;;;;;16.10;68.04;101026.31;10224154;28;20066;-75
2023/09/05 04:47:33;;;;;;;5.78;3.30;;;;;;;16.08;67.88;101028.31;10224036;28;20418;-75
2023/09/05 04:52:36;;;;;;;4.78;3.50;;;;;;;16.04;68.12;101028.75;10218305;28;20082;-75
2023/09/05 04:57:42;;;;;;;5.93;3.50;;;;;;;16.11;67.85;101028.03;10224063;28;20053;-75
2023/09/05 05:02:45;;;;;;;4.80;3.53;;;;;;;16.00;68.46;101030.91;10220737;28;20051;-75
2023/09/05 05:07:48;;;;;;;5.68;3.53;;;;;;;16.14;68.05;101025.03;10220683;28;20157;-75
2023/09/05 05:12:52;;;;;;;5.10;3.28;;;;;;;16.19;67.97;101030.00;10221737;28;20327;-75
2023/09/05 05:17:55;;;;;;;5.28;3.03;;;;;;;16.23;67.93;101036.00;10222160;28;20062;-75
2023/09/05 05:22:58;;;;;;;3.60;2.70;;;;;;;16.24;67.70;101033.16;10224198;28;20080;-75
2023/09/05 05:28:02;;;;;;;4.95;3.25;;;;;;;16.26;67.74;101036.56;10222068;28;20039;-75
2023/09/05 05:33:05;;;;;;;3.55;3.20;;;;;;;16.16;68.05;101030.31;10218249;28;20134;-75
2023/09/05 05:38:08;;;;;;;3.70;3.30;;;;;;;16.32;67.89;101032.47;10222127;28;20093;-75
2023/09/05 05:43:12;;;;;;;6.82;3.30;;;;;;;16.43;67.87;101020.56;10218822;28;20418;-75
2023/09/05 05:48:15;;;;;;;6.70;2.92;;;;;;;16.68;67.17;101017.22;10220371;28;20039;-76
2023/09/05 05:53:20;;;;;;;6.50;3.50;;;;;;;16.83;66.57;101016.72;10261157;28;20062;-76
2023/09/05 05:58:24;;;;;;;5.40;2.88;;;;;;;17.11;65.67;101020.28;10260489;28;20046;-77
2023/09/05 06:03:28;;;;;;;3.35;2.83;;;;;;;17.20;65.37;101027.56;10219057;28;20075;-78
2023/09/05 06:08:31;;;;;;;3.88;2.88;;;;;;;17.28;65.30;101027.66;10225636;28;20924;-77
2023/09/05 06:13:36;;;;;;;5.05;2.67;;;;;;;17.53;64.84;101026.03;10222622;28;20052;-79
2023/09/05 06:18:38;;;;;;;6.13;2.78;;;;;;;17.50;64.71;101029.06;10219647;28;20540;-79
2023/09/05 06:23:41;;;;;;;5.35;3.05;;;;;;;17.79;64.28;101036.97;10225123;28;20047;-77
2023/09/05 06:28:47;;;;;;;3.47;2.45;;;;;;;17.76;64.01;101034.56;10225450;28;20050;-79
2023/09/05 06:33:50;;;;;;;3.10;2.80;;;;;;;18.10;63.07;101034.75;10225095;28;21619;-79
2023/09/05 06:38:53;;;;;;;6.22;3.25;;;;;;;18.25;63.22;101021.41;10225042;28;20058;-79
2023/09/05 06:43:57;;;;;;;6.22;3.25;;;;;;;18.31;62.71;101033.53;10218901;28;20507;-78
2023/09/05 06:49:00;;;;;;;3.38;2.80;;;;;;;18.72;61.58;101037.34;10217041;28;20051;-76
2023/09/05 06:54:03;;;;;;;3.97;2.72;;;;;;;18.94;61.08;101016.88;10221867;28;20054;-75
2023/09/05 06:59:17;;;;;;;3.40;3.08;;;;;;;19.17;60.88;101027.19;10216406;28;20051;-77
2023/09/05 07:04:20;;;;;;;3.78;2.85;;;;;;;19.45;60.30;101036.81;10218696;28;20576;-77
2023/09/05 07:09:23;;;;;;;3.35;2.65;;;;;;;19.80;59.72;101023.06;10222648;28;20075;-77
2023/09/05 07:14:27;;;;;;;5.07;2.92;;;;;;;20.18;58.67;101028.88;10224484;28;20129;-77
2023/09/05 07:19:30;;;;;;;4.57;3.15;;;;;;;20.01;57.91;101034.34;10226914;28;20055;-77
2023/09/05 07:24:33;;;;;;;3.17;2.70;;;;;;;20.33;57.68;101030.75;10222865;28;20442;-77
2023/09/05 07:29:37;;;;;;;2.80;2.50;;;;;;;20.84;56.47;101027.72;10221554;28;20506;-77
2023/09/05 07:34:41;;;;;;;2.50;2.30;;;;;;;21.18;55.83;101040.25;10217591;28;20982;-77
2023/09/05 07:39:44;;;;;;;4.57;2.95;;;;;;;21.50;54.40;101032.88;10223133;28;20054;-77
2023/09/05 07:44:48;;;;;;;3.63;2.67;;;;;;;21.44;54.00;101043.50;10221796;28;20060;-76
2023/09/05 07:49:51;;;;;;;3.70;2.35;;;;;;;21.46;54.20;101035.13;10223476;28;20054;-76
2023/09/05 07:54:54;;;;;;;3.10;2.75;;;;;;;22.01;53.53;101035.97;10219542;28;20047;-76
2023/09/05 08:06:36;;;;;;;3.45;2.70;;;;;;;22.09;53.14;101038.63;10257132;28;20092;-75
2023/09/05 08:11:39;;;;;;;3.08;2.78;;;;;;;22.41;53.15;101042.09;10266775;28;20043;-75
2023/09/05 08:16:41;;;;;;;6.25;3.08;;;;;;;22.87;51.45;101033.75;10260096;28;20040;-76
2023/09/05 08:21:46;;;;;;;3.33;2.70;;;;;;;23.01;52.09;101010.97;10260236;28;20038;-75
2023/09/05 08:26:48;;;;;;;3.47;2.50;;;;;;;23.76;50.10;101019.84;10258995;28;20039;-75
2023/09/05 08:31:51;;;;;;;3.10;2.05;;;;;;;24.84;47.55;101015.00;10256851;28;20054;-75
2023/09/05 08:36:57;;;;;;;2.47;2.28;;;;;;;25.75;46.19;101021.06;10261405;28;20142;-75
2023/09/05 08:42:04;;;;;;;4.20;2.30;;;;;;;25.13;47.07;101017.50;10260782;28;20049;-74
2023/09/05 08:47:07;;;;;;;4.65;2.15;;;;;;;25.26;47.14;101015.84;10270233;28;20039;-76
2023/09/05 08:52:14;;;;;;;4.70;2.63;;;;;;;25.16;46.10;101021.75;10257372;28;20043;-76
2023/09/05 08:57:26;;;;;;;3.00;2.20;;;;;;;25.35;45.99;101020.97;10260506;28;20499;-76
2023/09/05 09:02:29;;;;;;;3.75;2.35;;;;;;;25.60;46.16;101014.88;10256167;28;20482;-75
2023/09/05 09:07:33;;;;;;;3.42;1.90;;;;;;;25.94;46.09;101013.88;10257933;28;20486;-75
2023/09/05 09:12:36;;;;;;;3.58;2.28;;;;;;;26.11;44.52;101018.97;10259561;28;20050;-75
2023/09/05 09:17:40;;;;;;;3.10;2.20;;;;;;;26.43;44.55;101023.63;10258164;28;20043;-75
2023/09/05 09:22:45;;;;;;;2.90;2.33;;;;;;;26.47;43.57;101022.16;10255732;28;20483;-75
2023/09/05 09:27:52;;;;;;;3.55;2.10;;;;;;;27.03;43.73;101018.00;10256324;28;20046;-76
2023/09/05 09:32:56;;;;;;;3.85;2.13;;;;;;;27.39;42.60;101019.31;10253900;28;20150;-76
2023/09/05 09:38:01;;;;;;;4.25;2.05;;;;;;;27.66;42.05;101003.47;10251376;28;20458;-76
2023/09/05 09:43:09;;;;;;;4.93;2.53;;;;;;;27.51;41.56;101008.44;10255062;28;20066;-76
2023/09/05 09:48:16;;;;;;;4.32;2.03;;;;;;;27.36;41.12;101004.03;10252352;28;20043;-76
2023/09/05 09:53:30;;;;;;;2.97;1.80;;;;;;;27.66;41.65;100992.44;10251505;28;20424;-76
2023/09/05 09:58:35;;;;;;;3.78;1.85;;;;;;;27.56;41.04;100976.38;10253201;28;20035;-75
2023/09/05 10:03:39;;;;;;;2.47;1.70;;;;;;;27.65;41.23;100981.63;10253003;28;20418;-76
2023/09/05 10:08:47;;;;;;;3.47;1.70;;;;;;;27.80;41.72;100976.59;10253614;28;20051;-76
2023/09/05 10:13:51;;;;;;;3.65;1.88;;;;;;;28.04;41.21;100963.91;10246214;28;20047;-76
2023/09/05 10:18:55;;;;;;;4.05;1.80;;;;;;;28.48;40.53;100960.06;10249210;28;20052;-76
2023/09/05 10:24:00;;;;;;;2.95;1.80;;;;;;;28.74;39.40;100951.72;10251491;28;20051;-77
2023/09/05 10:29:42;;;;;;;1.60;1.50;;;;;;;29.23;39.88;100958.09;10255838;28;20522;-76
2023/09/05 10:34:58;;;;;;;3.78;2.30;;;;;;;29.30;38.93;100951.41;10249849;28;20511;-75
2023/09/05 10:40:07;;;;;;;2.35;1.73;;;;;;;29.71;38.48;100944.19;10250452;28;20134;-75
2023/09/05 10:45:33;;;;;;;8.35;1.73;;;;;;;30.04;38.17;100945.56;10255612;28;20035;-75
2023/09/05 10:51:10;;;;;;;4.55;1.88;;;;;;;29.64;38.64;100943.44;10255117;28;20054;-75
2023/09/05 10:56:43;;;;;;;1.80;1.70;;;;;;;30.20;38.33;100930.16;10256144;28;20038;-75
2023/09/05 11:01:52;;;;;;;1.55;1.45;;;;;;;31.20;36.62;100937.28;10255810;28;20049;-76
2023/09/05 11:07:07;;;;;;;1.80;1.60;;;;;;;32.22;35.67;100930.69;10264199;28;20067;-75
2023/09/05 11:12:12;;;;;;;1.50;1.40;;;;;;;32.78;34.83;100925.06;10251148;28;20482;-75
2023/09/05 11:17:17;;;;;;;1.67;1.50;;;;;;;33.10;34.42;100914.03;10252235;28;20063;-75
2023/09/05 11:22:22;;;;;;;3.42;1.60;;;;;;;33.13;33.91;100911.78;10247766;28;20502;-75
2023/09/05 11:27:29;;;;;;;2.22;1.67;;;;;;;32.66;34.29;100907.66;10249887;28;20047;-74
2023/09/05 11:32:33;;;;;;;2.50;1.50;;;;;;;33.30;33.25;100904.22;10265196;28;20051;-74
2023/09/05 11:37:36;;;;;;;2.05;1.70;;;;;;;33.21;33.88;100903.84;10250366;28;20069;-74
2023/09/05 11:42:40;;;;;;;5.85;1.70;;;;;;;33.98;34.02;100899.78;10253243;28;20039;-75
2023/09/05 11:47:44;;;;;;;5.60;1.42;;;;;;;34.34;32.36;100904.72;10250565;28;20402;-76
2023/09/05 11:52:51;;;;;;;2.65;1.65;;;;;;;34.60;32.52;100897.34;10253090;28;20054;-75
2023/09/05 11:57:58;;;;;;;3.38;1.25;;;;;;;35.05;31.94;100890.22;10250396;28;20050;-76
2023/09/05 12:03:01;;;;;;;4.47;1.65;;;;;;;35.05;31.81;100891.09;10249021;28;20059;-75
2023/09/05 12:08:06;;;;;;;2.30;1.33;;;;;;;34.90;31.83;100893.81;10249423;28;20054;-76
2023/09/05 12:13:38;;;;;;;1.13;1.13;;;;;;;34.35;32.36;100901.66;10248186;28;20039;-75
2023/09/05 12:18:41;;;;;;;1.75;1.10;;;;;;;34.31;32.59;100885.75;10248483;28;20054;-76
2023/09/05 12:23:48;;;;;;;2.00;1.48;;;;;;;33.63;33.08;100880.84;10251640;28;20050;-76
2023/09/05 12:28:57;;;;;;;5.10;1.58;;;;;;;33.53;33.11;100880.75;10249742;28;20136;-76
2023/09/05 12:34:00;;;;;;;2.75;1.20;;;;;;;33.87;33.46;100869.31;10251967;28;20050;-76
2023/09/05 12:39:03;;;;;;;1.70;1.60;;;;;;;35.36;31.29;100856.75;10254986;28;20046;-77
2023/09/05 12:44:08;;;;;;;1.52;1.30;;;;;;;37.13;29.53;100859.25;10282920;28;20078;-78
2023/09/05 12:49:12;;;;;;;2.10;1.25;;;;;;;38.30;28.27;100862.06;10268330;28;20071;-77
2023/09/05 12:54:15;;;;;;;1.27;1.17;;;;;;;37.47;28.84;100852.84;10260376;28;20403;-78
2023/09/05 12:59:21;;;;;;;1.55;1.45;;;;;;;37.42;28.24;100861.28;10275988;28;20041;-77
2023/09/05 13:04:29;;;;;;;1.58;1.10;;;;;;;37.86;28.34;100854.72;10299424;28;20031;-77
2023/09/05 13:09:32;;;;;;;1.52;1.27;;;;;;;36.85;29.41;100840.41;10277196;28;20043;-78
2023/09/05 13:14:36;;;;;;;3.08;1.52;;;;;;;37.06;29.71;100833.56;10273460;28;20053;-78
2023/09/05 13:19:40;;;;;;;1.52;1.40;;;;;;;37.14;29.21;100827.31;10271941;28;20395;-77
2023/09/05 13:24:45;;;;;;;3.10;1.23;;;;;;;35.23;31.35;100817.09;10259446;28;20071;-78
2023/09/05 13:29:50;;;;;;;2.78;1.08;;;;;;;34.58;32.40;100813.09;10259097;28;20039;-77
2023/09/05 13:34:53;;;;;;;2.25;0.90;;;;;;;33.95;31.05;100807.50;10261437;28;20114;-77
2023/09/05 13:39:56;;;;;;;2.65;0.80;;;;;;;33.74;31.04;100809.34;10259984;28;20077;-75
2023/09/05 13:45:01;;;;;;;0.70;0.70;;;;;;;33.97;30.72;100808.06;10251859;28;20043;-77
2023/09/05 13:50:05;;;;;;;1.63;0.70;;;;;;;33.77;31.12;100806.84;10255975;28;20066;-77
2023/09/05 13:55:09;;;;;;;1.08;0.75;;;;;;;34.61;30.25;100793.88;10260102;28;20106;-78
2023/09/05 14:00:14;;;;;;;0.80;0.77;;;;;;;33.99;30.11;100798.34;10275498;28;20296;-76
2023/09/05 14:05:17;;;;;;;0.70;0.68;;;;;;;33.89;31.03;100795.50;10262126;28;20158;-77
2023/09/05 14:10:20;;;;;;;2.63;0.80;;;;;;;33.99;29.70;100795.56;10259272;28;20055;-76
2023/09/05 14:15:24;;;;;;;1.40;0.80;;;;;;;34.19;30.04;100791.19;10269050;28;20054;-77
2023/09/05 14:20:28;;;;;;;2.65;0.60;;;;;;;33.27;30.48;100782.28;10271276;28;20051;-77
2023/09/05 14:25:31;;;;;;;2.30;0.50;;;;;;;33.16;29.82;100766.59;10274957;28;20055;-77
2023/09/05 14:30:35;;;;;;;1.45;0.70;;;;;;;33.45;30.42;100769.88;10270789;28;20493;-77
2023/09/05 14:35:38;;;;;;;1.60;0.60;;;;;;;33.09;30.58;100770.41;10272488;28;20107;-77
2023/09/05 14:40:41;;;;;;;0.60;0.50;;;;;;;33.40;30.44;100769.81;10276092;28;20062;-77
2023/09/05 14:45:46;;;;;;;2.20;0.98;;;;;;;33.49;31.14;100776.59;10287708;28;20681;-77
2023/09/05 14:50:49;;;;;;;1.85;0.70;;;;;;;33.42;30.32;100764.84;10268180;28;20049;-77
2023/09/05 14:55:51;;;;;;;1.50;0.77;;;;;;;33.71;29.97;100763.38;10272494;28;20042;-76
2023/09/05 15:00:56;;;;;;;3.53;0.80;;;;;;;33.60;30.82;100760.75;10269333;28;20529;-78
2023/09/05 15:05:59;;;;;;;0.93;0.93;;;;;;;33.08;33.11;100763.16;10275946;28;20035;-78
2023/09/05 15:11:01;;;;;;;2.95;1.02;;;;;;;33.24;32.71;100758.59;10277106;28;20043;-77
2023/09/05 15:16:07;;;;;;;1.10;1.00;;;;;;;33.28;33.32;100756.13;10279979;28;20043;-77
2023/09/05 15:21:11;;;;;;;2.15;1.00;;;;;;;33.19;33.36;100757.72;10275536;28;20098;-77
2023/09/05 15:26:15;;;;;;;1.10;1.00;;;;;;;33.17;33.14;100749.63;10274951;28;20070;-77
2023/09/05 15:31:19;;;;;;;5.05;1.30;;;;;;;32.98;33.71;100751.13;10287802;28;20055;-77
2023/09/05 15:36:22;;;;;;;1.13;0.90;;;;;;;33.10;33.33;100747.06;10284516;28;20051;-77
2023/09/05 15:41:25;;;;;;;1.10;1.00;;;;;;;32.94;33.72;100744.41;10285342;28;20039;-78
2023/09/05 15:46:31;;;;;;;0.85;0.85;;;;;;;32.71;34.00;100749.22;10272361;28;20048;-77
2023/09/05 15:51:34;;;;;;;1.40;0.90;;;;;;;32.85;34.06;100735.69;10269627;28;20054;-77
2023/09/05 15:56:37;;;;;;;2.63;1.17;;;;;;;32.87;34.30;100733.50;10268390;28;20075;-78
2023/09/05 16:01:41;;;;;;;2.55;0.90;;;;;;;32.59;34.30;100731.84;10273797;28;20047;-77
2023/09/05 16:06:45;;;;;;;1.40;1.00;;;;;;;31.95;34.59;100725.00;10273238;28;20111;-77
2023/09/05 16:11:48;;;;;;;0.93;0.93;;;;;;;31.62;34.83;100717.56;10270716;28;20098;-78
2023/09/05 16:16:53;;;;;;;3.03;1.00;;;;;;;31.35;35.40;100731.38;10267959;28;20051;-77
2023/09/05 16:21:56;;;;;;;1.48;1.23;;;;;;;31.38;35.29;100722.53;10268187;28;20114;-76
2023/09/05 16:27:02;;;;;;;3.17;0.90;;;;;;;31.13;36.01;100722.97;10289279;28;20068;-77
2023/09/05 16:32:06;;;;;;;4.03;1.20;;;;;;;31.12;36.03;100726.81;10274682;28;20047;-76
2023/09/05 16:37:14;;;;;;;1.88;1.00;;;;;;;31.17;36.28;100728.88;10276627;28;20067;-78
2023/09/05 16:42:17;;;;;;;3.20;1.02;;;;;;;30.98;36.68;100740.19;10276159;28;20117;-78
2023/09/05 16:47:21;;;;;;;1.15;0.85;;;;;;;30.82;36.38;100738.25;10275626;28;20438;-78
2023/09/05 16:52:24;;;;;;;4.10;0.95;;;;;;;30.78;36.82;100743.47;10272054;28;20042;-77
2023/09/05 16:57:27;;;;;;;1.88;1.00;;;;;;;30.13;37.13;100746.63;10267130;28;20482;-77
2023/09/05 17:02:31;;;;;;;1.33;0.88;;;;;;;30.07;37.79;100751.19;10265990;28;20451;-78
2023/09/05 17:07:34;;;;;;;2.95;1.00;;;;;;;29.71;38.05;100752.34;10277441;28;20039;-77
2023/09/05 17:12:37;;;;;;;1.05;1.00;;;;;;;29.45;38.87;100748.13;10267573;28;20043;-76
2023/09/05 17:17:42;;;;;;;1.30;1.05;;;;;;;29.21;39.44;100747.28;10256446;28;20043;-77
2023/09/05 17:22:45;;;;;;;5.43;1.52;;;;;;;29.04;40.10;100756.25;10259732;28;20497;-77
2023/09/05 17:27:48;;;;;;;3.17;1.55;;;;;;;28.63;41.03;100759.88;10263499;28;20035;-77
2023/09/05 17:32:53;;;;;;;4.22;1.02;;;;;;;28.41;41.52;100759.53;10262695;28;20059;-77
2023/09/05 17:37:56;;;;;;;1.95;1.30;;;;;;;28.04;42.13;100756.84;10261721;28;20047;-77
2023/09/05 17:42:59;;;;;;;4.10;1.25;;;;;;;27.65;42.88;100766.41;10260164;28;20050;-77
2023/09/05 17:48:05;;;;;;;3.13;1.33;;;;;;;27.35;43.62;100765.16;10265317;28;20043;-77
2023/09/05 17:53:09;;;;;;;4.30;1.30;;;;;;;27.06;44.24;100771.34;10263842;28;20035;-76
2023/09/05 17:58:12;;;;;;;1.63;1.20;;;;;;;26.86;44.38;100772.34;10267725;28;20065;-77
2023/09/05 18:03:16;;;;;;;2.33;1.45;;;;;;;26.73;45.89;100777.91;10272600;28;20058;-81
2023/09/05 18:08:19;;;;;;;3.30;1.40;;;;;;;26.54;46.33;100781.66;10272406;28;20045;-80
2023/09/05 18:13:22;;;;;;;3.13;1.45;;;;;;;26.23;47.58;100781.38;10274633;28;20118;-80
2023/09/05 18:18:28;;;;;;;2.88;1.60;;;;;;;26.02;48.48;100787.97;10295309;28;20097;-79
2023/09/05 18:23:32;;;;;;;2.38;1.17;;;;;;;25.80;49.14;100790.16;10280932;28;20051;-78
2023/09/05 18:28:36;;;;;;;6.55;1.40;;;;;;;25.71;48.98;100796.97;10281722;28;20046;-78
2023/09/05 18:33:41;;;;;;;1.55;1.45;;;;;;;25.54;50.08;100799.28;10280907;28;20498;-79
2023/09/05 18:38:44;;;;;;;3.33;1.42;;;;;;;25.44;49.76;100798.88;10281797;28;20063;-79
2023/09/05 18:43:49;;;;;;;3.53;1.77;;;;;;;25.34;49.75;100807.56;10285970;28;20539;-80
2023/09/05 18:48:54;;;;;;;1.90;1.70;;;;;;;25.21;50.10;100810.31;10283478;28;20614;-80
2023/09/05 18:53:57;;;;;;;5.82;2.72;;;;;;;25.09;50.82;100821.06;10287217;28;20075;-79
2023/09/05 18:59:00;;;;;;;2.88;2.67;;;;;;;24.96;50.87;100823.78;10279468;28;20050;-79
2023/09/05 19:04:04;;;;;;;4.32;1.73;;;;;;;24.85;51.65;100818.88;10294593;28;20043;-79
2023/09/05 19:09:11;;;;;;;2.17;1.70;;;;;;;24.75;51.76;100824.78;10295976;28;20130;-78
2023/09/05 19:14:13;;;;;;;2.10;1.67;;;;;;;24.63;52.30;100824.56;10287911;28;20047;-79
2023/09/05 19:19:18;;;;;;;4.03;1.55;;;;;;;24.55;52.89;100824.75;10295109;28;20062;-79
2023/09/05 19:24:21;;;;;;;2.08;1.85;;;;;;;24.43;53.04;100821.72;10298389;28;20062;-77
2023/09/05 19:29:25;;;;;;;4.72;1.67;;;;;;;24.27;53.64;100822.91;10297789;28;20409;-79
2023/09/05 19:34:30;;;;;;;9.15;1.85;;;;;;;24.16;54.00;100828.09;10281856;28;20042;-78
2023/09/05 19:39:33;;;;;;;3.10;1.73;;;;;;;23.99;54.61;100833.09;10279876;28;20043;-77
2023/09/05 19:44:36;;;;;;;1.88;1.77;;;;;;;23.92;55.23;100827.56;10284777;28;20638;-77
2023/09/05 19:49:40;;;;;;;2.55;1.83;;;;;;;23.74;55.70;100819.81;10279646;28;20043;-76
2023/09/05 19:54:43;;;;;;;1.95;1.70;;;;;;;23.64;56.07;100817.44;10271764;28;20053;-77
2023/09/05 19:59:46;;;;;;;2.60;1.80;;;;;;;23.55;56.23;100815.88;10288189;28;20039;-78
2023/09/05 20:04:50;;;;;;;3.20;1.75;;;;;;;23.33;56.65;100812.34;10271851;28;20039;-76
2023/09/05 20:09:53;;;;;;;2.05;1.70;;;;;;;23.25;57.13;100812.47;10274506;28;20042;-78
2023/09/05 20:14:56;;;;;;;3.40;1.88;;;;;;;23.21;56.98;100814.78;10279569;28;20051;-77
2023/09/05 20:20:01;;;;;;;3.33;1.90;;;;;;;23.10;57.69;100807.06;10276608;28;20047;-77
2023/09/05 20:25:04;;;;;;;2.10;1.60;;;;;;;22.99;57.99;100808.44;10282527;28;20051;-78
2023/09/05 20:30:08;;;;;;;1.80;1.65;;;;;;;22.87;58.07;100803.66;10280617;28;20050;-78
2023/09/05 20:35:14;;;;;;;4.72;1.77;;;;;;;22.74;58.30;100807.97;10274057;28;20082;-78
2023/09/05 20:40:17;;;;;;;2.30;1.90;;;;;;;22.63;59.00;100808.50;10281840;28;20097;-77
2023/09/05 20:45:20;;;;;;;3.65;1.77;;;;;;;22.65;58.84;100803.66;10275102;28;20054;-78
2023/09/05 20:50:24;;;;;;;5.72;1.60;;;;;;;22.57;58.92;100813.88;10270423;28;20058;-77
2023/09/05 20:55:27;;;;;;;3.50;1.90;;;;;;;22.39;59.72;100808.81;10270255;28;20043;-78
2023/09/05 21:00:31;;;;;;;4.45;1.80;;;;;;;22.39;59.87;100809.66;10270983;28;20043;-77
2023/09/05 21:05:35;;;;;;;2.90;2.13;;;;;;;22.34;59.52;100801.16;10271948;28;20039;-77
2023/09/05 21:10:39;;;;;;;5.35;2.30;;;;;;;22.22;59.76;100803.56;10270093;28;20039;-78
2023/09/05 21:15:42;;;;;;;2.47;2.28;;;;;;;22.23;59.64;100798.91;10288669;28;20047;-78
2023/09/05 21:20:47;;;;;;;2.60;2.28;;;;;;;21.98;60.58;100806.59;10272842;28;20043;-77
2023/09/05 21:25:49;;;;;;;2.22;1.95;;;;;;;21.90;61.20;100799.31;10268161;28;20035;-79
2023/09/05 21:30:53;;;;;;;4.95;2.10;;;;;;;21.87;61.02;100802.44;10269923;28;20043;-76
2023/09/05 21:35:57;;;;;;;2.50;2.10;;;;;;;21.73;61.46;100798.63;10264480;28;20047;-77
2023/09/05 21:41:00;;;;;;;5.35;2.30;;;;;;;21.53;62.14;100798.34;10267050;28;20133;-78
2023/09/05 21:46:03;;;;;;;6.22;2.30;;;;;;;21.43;62.54;100797.75;10269369;28;20061;-77
2023/09/05 21:51:08;;;;;;;3.05;1.95;;;;;;;21.58;61.86;100790.41;10269435;28;20050;-78
2023/09/05 21:56:10;;;;;;;3.85;2.30;;;;;;;21.59;61.70;100786.66;10268027;28;20051;-78
2023/09/05 22:01:13;;;;;;;3.53;2.17;;;;;;;21.52;61.73;100799.34;10271027;28;20051;-78
2023/09/05 22:06:17;;;;;;;7.00;2.55;;;;;;;21.45;62.06;100790.22;10272436;28;20435;-79
2023/09/05 22:11:20;;;;;;;3.58;2.35;;;;;;;21.35;62.19;100798.69;10269236;28;20045;-78
2023/09/05 22:16:24;;;;;;;2.38;2.05;;;;;;;21.24;62.52;100799.13;10269910;28;20047;-78
2023/09/05 22:21:29;;;;;;;2.30;2.03;;;;;;;21.20;62.19;100803.25;10267596;28;20046;-78
2023/09/05 22:26:32;;;;;;;2.33;2.13;;;;;;;21.08;62.53;100805.56;10269366;28;20058;-78
2023/09/05 22:31:37;;;;;;;3.45;1.95;;;;;;;21.07;62.68;100811.22;10266307;28;20474;-77
2023/09/05 22:36:41;;;;;;;4.10;2.33;;;;;;;21.02;62.51;100807.13;10270103;28;20138;-78
2023/09/05 22:41:46;;;;;;;7.20;2.20;;;;;;;21.02;62.63;100803.53;10281122;28;20047;-78
2023/09/05 22:46:49;;;;;;;4.25;1.95;;;;;;;20.94;62.89;100804.44;10283664;28;20430;-78
2023/09/05 22:51:53;;;;;;;4.15;1.83;;;;;;;20.83;62.94;100807.59;10278564;28;20106;-78
2023/09/05 22:56:57;;;;;;;3.75;2.08;;;;;;;20.65;63.27;100796.13;10276857;28;20251;-77
2023/09/05 23:01:59;;;;;;;1.63;1.52;;;;;;;20.54;63.68;100801.00;10277248;28;20046;-77
2023/09/05 23:07:05;;;;;;;3.15;1.83;;;;;;;20.60;63.60;100796.69;10281848;28;20102;-77
2023/09/05 23:12:08;;;;;;;2.20;2.00;;;;;;;20.59;63.38;100797.69;10298763;28;20130;-78
2023/09/05 23:17:11;;;;;;;3.35;2.00;;;;;;;20.56;63.87;100793.44;10278252;28;20051;-77
2023/09/05 23:22:15;;;;;;;3.88;2.20;;;;;;;20.56;63.88;100796.19;10289128;28;20149;-77
2023/09/05 23:27:19;;;;;;;2.20;2.00;;;;;;;20.46;63.72;100801.03;10274027;28;20413;-77
2023/09/05 23:32:22;;;;;;;3.10;2.05;;;;;;;20.41;64.36;100803.44;10274161;28;20035;-78